sensor_id;sensor_type;location;lat;lon;timestamp;P1;durP1;ratioP1;P2;durP2;ratioP2
15192;SDS011;7697;51.630;7.484;2023-10-13T00:03:22;10.30;;;7.75;;
15192;SDS011;7697;51.630;7.484;2023-10-13T00:08:24;10.10;;;7.85;;
15192;SDS011;7697;51.630;7.484;2023-10-13T00:13:27;8.70;;;7.10;;
15192;SDS011;7697;51.630;7.484;2023-10-13T00:18:31;8.93;;;7.50;;
15192;SDS011;7697;51.630;7.484;2023-10-13T00:23:34;10.68;;;8.07;;
15192;SDS011;7697;51.630;7.484;2023-10-13T00:28:36;8.52;;;7.13;;
15192;SDS011;7697;51.630;7.484;2023-10-13T00:33:47;12.30;;;7.88;;
15192;SDS011;7697;51.630;7.484;2023-10-13T00:38:51;8.43;;;6.88;;
15192;SDS011;7697;51.630;7.484;2023-10-13T00:43:54;9.45;;;7.30;;
15192;SDS011;7697;51.630;7.484;2023-10-13T00:49:06;8.27;;;7.28;;
15192;SDS011;7697;51.630;7.484;2023-10-13T00:54:09;7.07;;;6.38;;
15192;SDS011;7697;51.630;7.484;2023-10-13T00:59:12;9.55;;;7.25;;
15192;SDS011;7697;51.630;7.484;2023-10-13T01:04:16;9.07;;;7.10;;
15192;SDS011;7697;51.630;7.484;2023-10-13T01:09:19;9.18;;;6.47;;
15192;SDS011;7697;51.630;7.484;2023-10-13T01:14:25;12.18;;;7.30;;
15192;SDS011;7697;51.630;7.484;2023-10-13T01:19:35;9.55;;;6.68;;
15192;SDS011;7697;51.630;7.484;2023-10-13T01:24:40;10.57;;;7.25;;
15192;SDS011;7697;51.630;7.484;2023-10-13T01:29:42;8.80;;;7.20;;
15192;SDS011;7697;51.630;7.484;2023-10-13T01:34:48;7.65;;;6.28;;
15192;SDS011;7697;51.630;7.484;2023-10-13T01:39:56;7.30;;;6.53;;
15192;SDS011;7697;51.630;7.484;2023-10-13T01:44:58;7.30;;;6.47;;
15192;SDS011;7697;51.630;7.484;2023-10-13T01:50:06;8.50;;;6.38;;
15192;SDS011;7697;51.630;7.484;2023-10-13T01:55:17;8.65;;;6.80;;
15192;SDS011;7697;51.630;7.484;2023-10-13T02:00:20;8.25;;;6.68;;
15192;SDS011;7697;51.630;7.484;2023-10-13T02:05:22;7.60;;;6.80;;
15192;SDS011;7697;51.630;7.484;2023-10-13T02:10:34;6.75;;;6.15;;
15192;SDS011;7697;51.630;7.484;2023-10-13T02:15:36;7.97;;;6.70;;
15192;SDS011;7697;51.630;7.484;2023-10-13T02:20:38;8.98;;;7.20;;
15192;SDS011;7697;51.630;7.484;2023-10-13T02:25:46;10.13;;;7.30;;
15192;SDS011;7697;51.630;7.484;2023-10-13T02:30:47;8.48;;;7.15;;
15192;SDS011;7697;51.630;7.484;2023-10-13T02:35:50;11.52;;;7.88;;
15192;SDS011;7697;51.630;7.484;2023-10-13T02:40:55;7.43;;;6.45;;
15192;SDS011;7697;51.630;7.484;2023-10-13T02:45:57;7.82;;;6.80;;
15192;SDS011;7697;51.630;7.484;2023-10-13T02:50:59;8.85;;;6.95;;
15192;SDS011;7697;51.630;7.484;2023-10-13T02:56:07;10.98;;;7.40;;
15192;SDS011;7697;51.630;7.484;2023-10-13T03:01:13;9.57;;;7.38;;
15192;SDS011;7697;51.630;7.484;2023-10-13T03:06:18;7.97;;;7.18;;
15192;SDS011;7697;51.630;7.484;2023-10-13T03:11:25;8.30;;;7.35;;
15192;SDS011;7697;51.630;7.484;2023-10-13T03:16:33;7.82;;;7.03;;
15192;SDS011;7697;51.630;7.484;2023-10-13T03:21:35;8.20;;;6.80;;
15192;SDS011;7697;51.630;7.484;2023-10-13T03:26:38;7.20;;;6.50;;
15192;SDS011;7697;51.630;7.484;2023-10-13T03:31:44;9.68;;;6.82;;
15192;SDS011;7697;51.630;7.484;2023-10-13T03:36:46;9.07;;;6.80;;
15192;SDS011;7697;51.630;7.484;2023-10-13T03:41:59;7.53;;;6.60;;
15192;SDS011;7697;51.630;7.484;2023-10-13T03:47:05;6.72;;;5.95;;
15192;SDS011;7697;51.630;7.484;2023-10-13T03:52:18;10.13;;;6.90;;
15192;SDS011;7697;51.630;7.484;2023-10-13T03:57:34;7.60;;;6.35;;
15192;SDS011;7697;51.630;7.484;2023-10-13T04:03:09;8.00;;;6.20;;
15192;SDS011;7697;51.630;7.484;2023-10-13T04:09:06;7.22;;;6.18;;
15192;SDS011;7697;51.630;7.484;2023-10-13T04:14:39;6.45;;;5.85;;
15192;SDS011;7697;51.630;7.484;2023-10-13T04:20:01;6.63;;;5.78;;
15192;SDS011;7697;51.630;7.484;2023-10-13T04:25:27;6.82;;;6.22;;
15192;SDS011;7697;51.630;7.484;2023-10-13T04:30:43;5.10;;;4.65;;
15192;SDS011;7697;51.630;7.484;2023-10-13T04:36:05;5.95;;;4.75;;
15192;SDS011;7697;51.630;7.484;2023-10-13T04:41:19;7.18;;;5.53;;
15192;SDS011;7697;51.630;7.484;2023-10-13T04:47:00;6.03;;;5.43;;
15192;SDS011;7697;51.630;7.484;2023-10-13T04:52:19;6.45;;;5.85;;
15192;SDS011;7697;51.630;7.484;2023-10-13T04:58:03;5.82;;;5.30;;
15192;SDS011;7697;51.630;7.484;2023-10-13T05:03:38;6.55;;;5.68;;
15192;SDS011;7697;51.630;7.484;2023-10-13T05:09:07;7.38;;;5.10;;
15192;SDS011;7697;51.630;7.484;2023-10-13T05:14:28;6.90;;;6.20;;
15192;SDS011;7697;51.630;7.484;2023-10-13T05:19:54;7.13;;;5.75;;
15192;SDS011;7697;51.630;7.484;2023-10-13T05:25:17;6.20;;;5.55;;
15192;SDS011;7697;51.630;7.484;2023-10-13T05:30:37;7.80;;;6.15;;
15192;SDS011;7697;51.630;7.484;2023-10-13T05:36:16;8.13;;;6.15;;
15192;SDS011;7697;51.630;7.484;2023-10-13T05:41:54;6.63;;;6.00;;
15192;SDS011;7697;51.630;7.484;2023-10-13T05:47:13;6.75;;;5.95;;
15192;SDS011;7697;51.630;7.484;2023-10-13T07:09:51;6.47;;;4.47;;
15192;SDS011;7697;51.630;7.484;2023-10-13T07:15:25;6.28;;;4.53;;
15192;SDS011;7697;51.630;7.484;2023-10-13T07:20:45;5.78;;;4.35;;
15192;SDS011;7697;51.630;7.484;2023-10-13T07:25:52;5.93;;;5.32;;
15192;SDS011;7697;51.630;7.484;2023-10-13T07:30:57;7.03;;;5.75;;
15192;SDS011;7697;51.630;7.484;2023-10-13T07:36:24;7.20;;;4.00;;
15192;SDS011;7697;51.630;7.484;2023-10-13T07:41:34;4.78;;;4.25;;
15192;SDS011;7697;51.630;7.484;2023-10-13T07:46:37;8.07;;;4.28;;
15192;SDS011;7697;51.630;7.484;2023-10-13T07:51:40;6.18;;;5.13;;
15192;SDS011;7697;51.630;7.484;2023-10-13T07:56:49;6.35;;;4.75;;
15192;SDS011;7697;51.630;7.484;2023-10-13T08:01:51;5.97;;;4.55;;
15192;SDS011;7697;51.630;7.484;2023-10-13T08:07:52;9.52;;;5.45;;
15192;SDS011;7697;51.630;7.484;2023-10-13T08:12:58;6.68;;;4.80;;
15192;SDS011;7697;51.630;7.484;2023-10-13T08:18:00;7.28;;;4.68;;
15192;SDS011;7697;51.630;7.484;2023-10-13T08:23:08;7.00;;;4.80;;
15192;SDS011;7697;51.630;7.484;2023-10-13T08:28:36;10.13;;;5.13;;
15192;SDS011;7697;51.630;7.484;2023-10-13T08:33:56;7.18;;;4.53;;
15192;SDS011;7697;51.630;7.484;2023-10-13T08:39:08;9.00;;;4.68;;
15192;SDS011;7697;51.630;7.484;2023-10-13T08:44:24;7.75;;;5.05;;
15192;SDS011;7697;51.630;7.484;2023-10-13T08:49:35;6.15;;;4.63;;
15192;SDS011;7697;51.630;7.484;2023-10-13T08:54:42;7.68;;;4.50;;
15192;SDS011;7697;51.630;7.484;2023-10-13T09:00:03;11.50;;;4.88;;
15192;SDS011;7697;51.630;7.484;2023-10-13T09:05:19;9.40;;;5.05;;
15192;SDS011;7697;51.630;7.484;2023-10-13T09:10:38;9.07;;;4.90;;
15192;SDS011;7697;51.630;7.484;2023-10-13T09:16:08;11.15;;;4.22;;
15192;SDS011;7697;51.630;7.484;2023-10-13T09:21:21;10.68;;;4.53;;
15192;SDS011;7697;51.630;7.484;2023-10-13T09:26:42;7.28;;;4.10;;
15192;SDS011;7697;51.630;7.484;2023-10-13T09:31:46;6.85;;;4.10;;
15192;SDS011;7697;51.630;7.484;2023-10-13T09:36:51;10.35;;;5.07;;
15192;SDS011;7697;51.630;7.484;2023-10-13T09:41:57;7.93;;;4.20;;
15192;SDS011;7697;51.630;7.484;2023-10-13T09:47:00;6.63;;;3.80;;
15192;SDS011;7697;51.630;7.484;2023-10-13T09:52:08;10.60;;;4.78;;
15192;SDS011;7697;51.630;7.484;2023-10-13T09:57:17;8.55;;;4.85;;
15192;SDS011;7697;51.630;7.484;2023-10-13T10:02:24;5.32;;;3.67;;
15192;SDS011;7697;51.630;7.484;2023-10-13T10:07:28;11.68;;;4.15;;
15192;SDS011;7697;51.630;7.484;2023-10-13T10:12:35;7.88;;;4.15;;
15192;SDS011;7697;51.630;7.484;2023-10-13T10:17:47;6.95;;;3.83;;
15192;SDS011;7697;51.630;7.484;2023-10-13T10:22:56;9.13;;;4.78;;
15192;SDS011;7697;51.630;7.484;2023-10-13T10:28:01;11.45;;;4.43;;
15192;SDS011;7697;51.630;7.484;2023-10-13T10:33:06;7.53;;;4.35;;
15192;SDS011;7697;51.630;7.484;2023-10-13T10:38:12;6.65;;;4.47;;
15192;SDS011;7697;51.630;7.484;2023-10-13T10:43:27;8.90;;;4.60;;
15192;SDS011;7697;51.630;7.484;2023-10-13T10:48:42;9.82;;;4.82;;
15192;SDS011;7697;51.630;7.484;2023-10-13T10:53:44;8.20;;;4.70;;
15192;SDS011;7697;51.630;7.484;2023-10-13T10:58:48;12.80;;;4.97;;
15192;SDS011;7697;51.630;7.484;2023-10-13T11:03:55;8.65;;;5.32;;
15192;SDS011;7697;51.630;7.484;2023-10-13T11:09:08;11.35;;;4.78;;
15192;SDS011;7697;51.630;7.484;2023-10-13T11:14:23;7.63;;;4.68;;
15192;SDS011;7697;51.630;7.484;2023-10-13T11:19:33;10.10;;;5.18;;
15192;SDS011;7697;51.630;7.484;2023-10-13T11:24:39;8.38;;;4.68;;
15192;SDS011;7697;51.630;7.484;2023-10-13T11:29:43;8.13;;;4.93;;
15192;SDS011;7697;51.630;7.484;2023-10-13T11:34:52;7.85;;;4.97;;
15192;SDS011;7697;51.630;7.484;2023-10-13T11:39:54;9.15;;;5.28;;
15192;SDS011;7697;51.630;7.484;2023-10-13T11:44:58;9.25;;;5.43;;
15192;SDS011;7697;51.630;7.484;2023-10-13T11:50:24;7.20;;;5.30;;
15192;SDS011;7697;51.630;7.484;2023-10-13T11:55:33;9.13;;;4.90;;
15192;SDS011;7697;51.630;7.484;2023-10-13T12:00:36;8.75;;;5.50;;
15192;SDS011;7697;51.630;7.484;2023-10-13T12:05:54;10.65;;;5.07;;
15192;SDS011;7697;51.630;7.484;2023-10-13T12:11:18;7.20;;;4.65;;
15192;SDS011;7697;51.630;7.484;2023-10-13T12:16:33;8.82;;;5.15;;
15192;SDS011;7697;51.630;7.484;2023-10-13T12:21:35;9.20;;;4.85;;
15192;SDS011;7697;51.630;7.484;2023-10-13T12:26:38;9.20;;;5.25;;
15192;SDS011;7697;51.630;7.484;2023-10-13T12:31:44;8.60;;;4.97;;
15192;SDS011;7697;51.630;7.484;2023-10-13T12:36:52;7.60;;;4.65;;
15192;SDS011;7697;51.630;7.484;2023-10-13T12:42:05;8.80;;;5.50;;
15192;SDS011;7697;51.630;7.484;2023-10-13T12:47:26;9.85;;;5.25;;
15192;SDS011;7697;51.630;7.484;2023-10-13T12:52:45;6.90;;;4.47;;
15192;SDS011;7697;51.630;7.484;2023-10-13T12:57:46;8.75;;;4.85;;
15192;SDS011;7697;51.630;7.484;2023-10-13T13:02:50;8.38;;;4.90;;
15192;SDS011;7697;51.630;7.484;2023-10-13T13:07:55;5.53;;;4.35;;
15192;SDS011;7697;51.630;7.484;2023-10-13T13:12:57;7.25;;;5.07;;
15192;SDS011;7697;51.630;7.484;2023-10-13T13:18:00;13.60;;;5.72;;
15192;SDS011;7697;51.630;7.484;2023-10-13T13:23:10;6.93;;;4.85;;
15192;SDS011;7697;51.630;7.484;2023-10-13T13:28:12;8.73;;;4.72;;
15192;SDS011;7697;51.630;7.484;2023-10-13T13:33:16;7.85;;;4.63;;
15192;SDS011;7697;51.630;7.484;2023-10-13T13:38:23;9.98;;;5.05;;
15192;SDS011;7697;51.630;7.484;2023-10-13T13:43:27;7.13;;;4.65;;
15192;SDS011;7697;51.630;7.484;2023-10-13T13:48:39;12.60;;;4.97;;
15192;SDS011;7697;51.630;7.484;2023-10-13T13:53:41;10.60;;;4.75;;
15192;SDS011;7697;51.630;7.484;2023-10-13T13:58:45;9.68;;;4.57;;
15192;SDS011;7697;51.630;7.484;2023-10-13T14:03:49;12.30;;;5.57;;
15192;SDS011;7697;51.630;7.484;2023-10-13T14:08:52;12.07;;;5.30;;
15192;SDS011;7697;51.630;7.484;2023-10-13T14:13:56;11.15;;;5.10;;
15192;SDS011;7697;51.630;7.484;2023-10-13T14:18:59;8.57;;;4.90;;
15192;SDS011;7697;51.630;7.484;2023-10-13T14:24:05;9.07;;;5.05;;
15192;SDS011;7697;51.630;7.484;2023-10-13T14:29:14;14.80;;;5.60;;
15192;SDS011;7697;51.630;7.484;2023-10-13T14:34:18;11.15;;;5.65;;
15192;SDS011;7697;51.630;7.484;2023-10-13T14:39:22;12.68;;;5.55;;
15192;SDS011;7697;51.630;7.484;2023-10-13T14:44:30;12.80;;;5.28;;
15192;SDS011;7697;51.630;7.484;2023-10-13T14:49:33;9.13;;;4.88;;
15192;SDS011;7697;51.630;7.484;2023-10-13T14:54:35;10.95;;;5.05;;
15192;SDS011;7697;51.630;7.484;2023-10-13T14:59:37;9.57;;;4.22;;
15192;SDS011;7697;51.630;7.484;2023-10-13T15:04:41;8.75;;;4.93;;
15192;SDS011;7697;51.630;7.484;2023-10-13T15:09:42;12.82;;;5.03;;
15192;SDS011;7697;51.630;7.484;2023-10-13T15:14:44;9.80;;;5.18;;
15192;SDS011;7697;51.630;7.484;2023-10-13T15:19:47;13.25;;;5.22;;
15192;SDS011;7697;51.630;7.484;2023-10-13T15:24:50;9.13;;;4.57;;
15192;SDS011;7697;51.630;7.484;2023-10-13T15:30:09;11.73;;;5.28;;
15192;SDS011;7697;51.630;7.484;2023-10-13T15:35:22;11.25;;;5.07;;
15192;SDS011;7697;51.630;7.484;2023-10-13T15:40:28;6.85;;;4.50;;
15192;SDS011;7697;51.630;7.484;2023-10-13T15:45:33;10.98;;;4.47;;
15192;SDS011;7697;51.630;7.484;2023-10-13T15:50:40;10.77;;;4.97;;
15192;SDS011;7697;51.630;7.484;2023-10-13T15:55:42;11.77;;;4.38;;
15192;SDS011;7697;51.630;7.484;2023-10-13T16:00:46;12.32;;;4.63;;
15192;SDS011;7697;51.630;7.484;2023-10-13T16:05:49;7.80;;;4.28;;
15192;SDS011;7697;51.630;7.484;2023-10-13T16:10:51;7.32;;;4.13;;
15192;SDS011;7697;51.630;7.484;2023-10-13T16:15:52;6.18;;;4.38;;
15192;SDS011;7697;51.630;7.484;2023-10-13T16:20:58;9.90;;;4.40;;
15192;SDS011;7697;51.630;7.484;2023-10-13T16:26:00;12.32;;;5.25;;
15192;SDS011;7697;51.630;7.484;2023-10-13T16:31:07;9.15;;;4.40;;
15192;SDS011;7697;51.630;7.484;2023-10-13T16:36:11;7.70;;;4.13;;
15192;SDS011;7697;51.630;7.484;2023-10-13T16:41:13;8.38;;;4.38;;
15192;SDS011;7697;51.630;7.484;2023-10-13T16:46:15;10.15;;;4.68;;
15192;SDS011;7697;51.630;7.484;2023-10-13T16:51:19;9.43;;;4.57;;
15192;SDS011;7697;51.630;7.484;2023-10-13T16:56:21;12.43;;;4.72;;
15192;SDS011;7697;51.630;7.484;2023-10-13T17:01:23;7.07;;;4.07;;
15192;SDS011;7697;51.630;7.484;2023-10-13T17:06:26;9.45;;;4.43;;
15192;SDS011;7697;51.630;7.484;2023-10-13T17:11:28;7.13;;;4.60;;
15192;SDS011;7697;51.630;7.484;2023-10-13T17:16:30;10.20;;;4.85;;
15192;SDS011;7697;51.630;7.484;2023-10-13T17:21:33;11.73;;;4.70;;
15192;SDS011;7697;51.630;7.484;2023-10-13T17:26:35;11.13;;;5.07;;
15192;SDS011;7697;51.630;7.484;2023-10-13T17:31:36;7.97;;;4.00;;
15192;SDS011;7697;51.630;7.484;2023-10-13T17:36:39;7.50;;;4.20;;
15192;SDS011;7697;51.630;7.484;2023-10-13T17:41:43;6.53;;;4.25;;
15192;SDS011;7697;51.630;7.484;2023-10-13T17:46:44;8.05;;;4.43;;
15192;SDS011;7697;51.630;7.484;2023-10-13T17:51:47;9.40;;;4.53;;
15192;SDS011;7697;51.630;7.484;2023-10-13T17:56:49;9.27;;;4.50;;
15192;SDS011;7697;51.630;7.484;2023-10-13T18:01:51;8.07;;;4.60;;
15192;SDS011;7697;51.630;7.484;2023-10-13T18:06:55;7.95;;;4.25;;
15192;SDS011;7697;51.630;7.484;2023-10-13T18:11:56;10.55;;;4.18;;
15192;SDS011;7697;51.630;7.484;2023-10-13T18:16:59;7.63;;;4.30;;
15192;SDS011;7697;51.630;7.484;2023-10-13T18:22:03;8.77;;;4.32;;
15192;SDS011;7697;51.630;7.484;2023-10-13T18:27:06;9.38;;;4.15;;
15192;SDS011;7697;51.630;7.484;2023-10-13T18:32:07;5.47;;;4.13;;
15192;SDS011;7697;51.630;7.484;2023-10-13T18:37:11;7.88;;;4.30;;
15192;SDS011;7697;51.630;7.484;2023-10-13T18:42:13;8.77;;;4.22;;
15192;SDS011;7697;51.630;7.484;2023-10-13T18:47:16;11.82;;;4.90;;
15192;SDS011;7697;51.630;7.484;2023-10-13T18:52:19;7.68;;;4.50;;
15192;SDS011;7697;51.630;7.484;2023-10-13T18:57:21;8.20;;;4.45;;
15192;SDS011;7697;51.630;7.484;2023-10-13T19:02:23;8.40;;;4.78;;
15192;SDS011;7697;51.630;7.484;2023-10-13T19:07:28;6.50;;;3.88;;
15192;SDS011;7697;51.630;7.484;2023-10-13T19:12:31;7.47;;;4.88;;
15192;SDS011;7697;51.630;7.484;2023-10-13T19:17:34;9.98;;;5.38;;
15192;SDS011;7697;51.630;7.484;2023-10-13T19:22:38;7.72;;;4.38;;
15192;SDS011;7697;51.630;7.484;2023-10-13T19:27:41;7.38;;;4.55;;
15192;SDS011;7697;51.630;7.484;2023-10-13T19:32:42;8.20;;;5.00;;
15192;SDS011;7697;51.630;7.484;2023-10-13T19:37:46;9.90;;;4.90;;
15192;SDS011;7697;51.630;7.484;2023-10-13T19:42:48;8.98;;;5.18;;
15192;SDS011;7697;51.630;7.484;2023-10-13T19:47:52;9.25;;;4.85;;
15192;SDS011;7697;51.630;7.484;2023-10-13T19:52:56;9.52;;;4.97;;
15192;SDS011;7697;51.630;7.484;2023-10-13T19:58:00;7.95;;;4.63;;
15192;SDS011;7697;51.630;7.484;2023-10-13T20:03:02;7.55;;;4.68;;
15192;SDS011;7697;51.630;7.484;2023-10-13T20:08:10;7.32;;;4.55;;
15192;SDS011;7697;51.630;7.484;2023-10-13T20:13:14;9.13;;;5.15;;
15192;SDS011;7697;51.630;7.484;2023-10-13T20:29:27;12.73;;;7.60;;
15192;SDS011;7697;51.630;7.484;2023-10-13T20:34:35;15.93;;;8.55;;
15192;SDS011;7697;51.630;7.484;2023-10-13T21:02:07;11.10;;;5.65;;
15192;SDS011;7697;51.630;7.484;2023-10-13T21:07:14;9.38;;;5.57;;
15192;SDS011;7697;51.630;7.484;2023-10-13T21:18:24;8.48;;;6.30;;
15192;SDS011;7697;51.630;7.484;2023-10-13T21:23:28;6.95;;;4.95;;
15192;SDS011;7697;51.630;7.484;2023-10-13T21:46:05;9.50;;;5.90;;
15192;SDS011;7697;51.630;7.484;2023-10-13T21:51:08;8.98;;;6.15;;
15192;SDS011;7697;51.630;7.484;2023-10-13T21:56:11;8.27;;;5.72;;
15192;SDS011;7697;51.630;7.484;2023-10-13T22:01:16;10.25;;;6.70;;
15192;SDS011;7697;51.630;7.484;2023-10-13T22:06:32;9.02;;;6.28;;
15192;SDS011;7697;51.630;7.484;2023-10-13T22:11:36;12.85;;;6.97;;
15192;SDS011;7697;51.630;7.484;2023-10-13T22:16:39;9.57;;;5.88;;
15192;SDS011;7697;51.630;7.484;2023-10-13T22:21:41;8.95;;;6.20;;
15192;SDS011;7697;51.630;7.484;2023-10-13T22:26:43;9.43;;;5.90;;
15192;SDS011;7697;51.630;7.484;2023-10-13T22:31:46;10.50;;;6.30;;
15192;SDS011;7697;51.630;7.484;2023-10-13T22:36:48;10.07;;;6.43;;
15192;SDS011;7697;51.630;7.484;2023-10-13T22:41:51;10.40;;;6.40;;
15192;SDS011;7697;51.630;7.484;2023-10-13T22:46:54;9.25;;;6.55;;
15192;SDS011;7697;51.630;7.484;2023-10-13T22:51:56;12.73;;;7.20;;
15192;SDS011;7697;51.630;7.484;2023-10-13T22:56:58;9.02;;;5.95;;
15192;SDS011;7697;51.630;7.484;2023-10-13T23:02:01;10.65;;;7.20;;
15192;SDS011;7697;51.630;7.484;2023-10-13T23:07:03;11.27;;;6.53;;
15192;SDS011;7697;51.630;7.484;2023-10-13T23:12:17;12.70;;;7.00;;
15192;SDS011;7697;51.630;7.484;2023-10-13T23:17:22;9.85;;;6.75;;
15192;SDS011;7697;51.630;7.484;2023-10-13T23:22:25;11.52;;;7.25;;
15192;SDS011;7697;51.630;7.484;2023-10-13T23:27:26;9.43;;;6.22;;
15192;SDS011;7697;51.630;7.484;2023-10-13T23:32:30;11.05;;;6.60;;
15192;SDS011;7697;51.630;7.484;2023-10-13T23:37:32;10.55;;;6.80;;
15192;SDS011;7697;51.630;7.484;2023-10-13T23:42:38;10.27;;;6.47;;
15192;SDS011;7697;51.630;7.484;2023-10-13T23:47:55;10.80;;;6.82;;
15192;SDS011;7697;51.630;7.484;2023-10-13T23:52:59;10.23;;;7.25;;
15192;SDS011;7697;51.630;7.484;2023-10-13T23:58:03;9.73;;;7.05;;
